Time;durP1;ratioP1;P1;durP2;ratioP2;P2;SDS_P1;SDS_P2;PMS_P1;PMS_P2;Temp;Humidity;BMP_temperature;BMP_pressure;BME280_temperature;BME280_humidity;BME280_pressure;Samples;Min_cycle;Max_cycle;Signal;HPM_P1;HPM_P2
2022/11/06 00:01:21;;;;;;;41.70;15.52;;;;;;;15.08;100.00;97500.88;6118362;23;20038;-92
2022/11/06 00:03:46;;;;;;;42.30;14.57;;;;;;;15.77;100.00;97478.28;6093388;23;20046;-92
2022/11/06 00:09:01;;;;;;;37.75;15.43;;;;;;;14.09;100.00;97500.09;6116028;23;20089;-91
2022/11/06 00:11:26;;;;;;;41.92;15.90;;;;;;;15.05;100.00;97485.28;6090003;23;20020;-92
2022/11/06 00:13:55;;;;;;;44.20;15.07;;;;;;;14.14;100.00;97479.75;6116776;23;20005;-89
2022/11/06 00:16:20;;;;;;;45.60;15.35;;;;;;;14.79;100.00;97473.38;6089979;23;20014;-89
2022/11/06 00:18:46;;;;;;;40.22;15.43;;;;;;;14.15;100.00;97483.22;6116675;23;20105;-92
2022/11/06 00:21:19;;;;;;;43.08;17.05;;;;;;;14.80;100.00;97470.69;6118889;23;20010;-92
2022/11/06 00:23:45;;;;;;;49.45;17.67;;;;;;;14.61;100.00;97468.06;6094493;23;20151;-92
2022/11/06 00:26:14;;;;;;;46.38;17.15;;;;;;;15.45;100.00;97461.47;6121489;23;20067;-92
2022/11/06 00:28:39;;;;;;;45.50;14.70;;;;;;;13.40;100.00;97469.81;6119925;23;20013;-92
2022/11/06 00:31:07;;;;;;;41.40;13.45;;;;;;;14.83;100.00;97467.91;6117154;23;20348;-91
2022/11/06 00:33:33;;;;;;;42.08;14.95;;;;;;;14.24;100.00;97477.59;6090877;23;20400;-91
2022/11/06 00:36:00;;;;;;;33.42;13.32;;;;;;;14.46;100.00;97482.72;6118055;23;20002;-92
2022/11/06 00:38:26;;;;;;;35.83;13.05;;;;;;;14.04;100.00;97481.06;6092442;23;20010;-92
2022/11/06 00:40:51;;;;;;;68.15;14.32;;;;;;;12.59;100.00;97486.91;6118002;23;20013;-91
2022/11/06 00:43:17;;;;;;;96.03;16.00;;;;;;;13.91;100.00;97470.28;6091008;23;20436;-91
2022/11/06 00:45:42;;;;;;;102.32;17.52;;;;;;;14.17;100.00;97474.38;6116929;23;20025;-91
2022/11/06 00:48:07;;;;;;;89.25;16.90;;;;;;;14.85;100.00;97454.75;6091097;23;20030;-91
2022/11/06 00:50:33;;;;;;;115.55;17.83;;;;;;;14.23;100.00;97459.31;6090230;23;20440;-91
2022/11/06 00:52:58;;;;;;;90.57;17.92;;;;;;;15.08;100.00;97450.16;6089739;23;20420;-90
2022/11/06 00:55:23;;;;;;;90.53;16.30;;;;;;;14.19;100.00;97453.34;6090913;23;20014;-90
2022/11/06 00:57:49;;;;;;;73.13;14.50;;;;;;;14.16;100.00;97449.06;6091442;23;20057;-91
2022/11/06 01:00:16;;;;;;;72.20;14.10;;;;;;;13.99;100.00;97457.69;6092639;23;20030;-91
2022/11/06 01:02:44;;;;;;;86.65;14.38;;;;;;;13.98;100.00;97436.78;6087822;23;20301;-90
2022/11/06 01:05:10;;;;;;;85.15;15.80;;;;;;;14.11;100.00;97435.34;6099140;23;20072;-91
2022/11/06 01:07:36;;;;;;;60.58;14.70;;;;;;;13.13;100.00;97435.09;6091751;23;20016;-91
2022/11/06 01:10:02;;;;;;;41.03;11.35;;;;;;;13.59;100.00;97433.19;6090288;23;20344;-92
2022/11/06 01:12:30;;;;;;;34.90;11.82;;;;;;;13.45;100.00;97438.19;6093633;23;20025;-91
2022/11/06 01:14:56;;;;;;;42.80;12.13;;;;;;;14.72;100.00;97427.38;6090537;23;20033;-91
2022/11/06 01:17:21;;;;;;;35.72;12.23;;;;;;;14.82;100.00;97413.75;6117661;23;20014;-91
2022/11/06 01:19:47;;;;;;;40.13;12.63;;;;;;;14.72;100.00;97416.88;6115173;23;20428;-91
2022/11/06 01:22:12;;;;;;;42.10;13.23;;;;;;;14.85;100.00;97421.47;6116103;23;20002;-92
2022/11/06 01:24:37;;;;;;;42.42;13.27;;;;;;;17.16;100.00;97397.19;6090804;23;19997;-91
2022/11/06 01:27:03;;;;;;;36.35;12.35;;;;;;;17.85;100.00;97389.59;6089947;23;20037;-91
2022/11/06 01:29:29;;;;;;;38.35;12.75;;;;;;;17.90;100.00;97387.53;6117385;23;20340;-92
2022/11/06 01:31:54;;;;;;;42.17;14.38;;;;;;;16.09;100.00;97396.03;6091060;23;20021;-92
2022/11/06 01:34:20;;;;;;;39.45;13.27;;;;;;;17.18;100.00;97392.66;6089697;23;20210;-92
2022/11/06 01:36:45;;;;;;;41.45;13.48;;;;;;;17.46;100.00;97383.13;6115700;23;20121;-92
2022/11/06 01:39:12;;;;;;;41.53;13.93;;;;;;;19.89;100.00;97370.44;6089180;23;20014;-92
2022/11/06 01:41:44;;;;;;;40.38;13.05;;;;;;;16.68;100.00;97389.28;6089429;23;20020;-91
2022/11/06 01:44:13;;;;;;;37.75;14.98;;;;;;;16.09;100.00;97388.16;6090078;23;20022;-92
2022/11/06 01:46:38;;;;;;;39.97;13.60;;;;;;;17.17;100.00;97379.56;6115473;23;20081;-92
2022/11/06 01:49:11;;;;;;;40.20;12.40;;;;;;;16.17;100.00;97393.84;6117186;23;20179;-92
2022/11/06 01:51:48;;;;;;;40.88;12.95;;;;;;;15.75;100.00;97389.91;6090247;23;20103;-92
2022/11/06 01:54:14;;;;;;;37.38;11.40;;;;;;;14.23;100.00;97402.47;6092673;23;20089;-91
2022/11/06 01:56:42;;;;;;;30.80;11.02;;;;;;;14.70;100.00;97395.97;6116620;23;20508;-91
2022/11/06 01:59:11;;;;;;;38.20;10.90;;;;;;;15.48;100.00;97374.66;6090755;23;20490;-90
2022/11/06 02:01:37;;;;;;;31.00;9.38;;;;;;;14.40;100.00;97392.97;6089998;23;20251;-93
2022/11/06 02:04:10;;;;;;;32.58;10.13;;;;;;;13.86;100.00;97395.41;6090492;23;20552;-91
2022/11/06 02:06:36;;;;;;;27.13;9.93;;;;;;;14.73;100.00;97387.09;6118082;23;20006;-90
2022/11/06 02:09:09;;;;;;;33.30;10.70;;;;;;;14.84;100.00;97379.53;6090187;23;20396;-90
2022/11/06 02:11:39;;;;;;;28.10;10.15;;;;;;;15.08;100.00;97369.59;6119068;23;20013;-91
2022/11/06 02:14:49;;;;;;;27.77;10.15;;;;;;;14.07;100.00;97373.47;6092523;23;20021;-89
2022/11/06 02:17:26;;;;;;;28.45;10.30;;;;;;;14.41;100.00;97368.44;6090713;23;20392;-92
2022/11/06 02:20:16;;;;;;;36.30;11.35;;;;;;;14.32;100.00;97361.84;6090182;23;20024;-90
2022/11/06 02:23:00;;;;;;;27.30;10.00;;;;;;;14.81;100.00;97356.91;6089341;23;20013;-92
2022/11/06 02:25:42;;;;;;;29.65;10.38;;;;;;;16.77;100.00;97339.69;6089359;23;20029;-89
2022/11/06 02:28:21;;;;;;;33.00;10.25;;;;;;;16.21;100.00;97333.13;6088908;23;20017;-90
2022/11/06 02:30:48;;;;;;;31.95;10.77;;;;;;;15.10;100.00;97338.03;6089726;23;20033;-91
2022/11/06 02:33:27;;;;;;;31.90;10.70;;;;;;;15.24;100.00;97332.94;6088595;23;20024;-89
2022/11/06 02:36:01;;;;;;;33.95;11.10;;;;;;;16.13;100.00;97330.06;6089831;23;20905;-90
2022/11/06 02:38:36;;;;;;;35.17;11.63;;;;;;;15.70;100.00;97327.91;6115623;23;20018;-90
2022/11/06 02:41:05;;;;;;;31.08;11.15;;;;;;;15.43;100.00;97329.34;6089013;23;20009;-90
2022/11/06 02:43:38;;;;;;;26.98;10.55;;;;;;;16.16;100.00;97329.06;6089867;23;20337;-90
2022/11/06 02:46:45;;;;;;;32.97;10.43;;;;;;;13.30;100.00;97346.25;6090022;23;20017;-90
2022/11/06 02:49:23;;;;;;;27.10;9.90;;;;;;;14.31;100.00;97344.44;5997049;23;20414;-90
2022/11/06 02:51:55;;;;;;;29.63;10.25;;;;;;;14.34;100.00;97333.78;5973040;23;20034;-90
2022/11/06 02:54:23;;;;;;;32.05;10.52;;;;;;;15.17;100.00;97326.28;5972903;23;20122;-90
2022/11/06 02:56:51;;;;;;;37.10;10.80;;;;;;;15.74;100.00;97325.13;5998373;23;20067;-90
2022/11/06 03:00:03;;;;;;;30.13;10.07;;;;;;;15.15;100.00;97315.84;5994872;23;20008;-91
2022/11/06 03:02:39;;;;;;;35.30;11.48;;;;;;;14.84;100.00;97311.31;6079658;23;20589;-94
2022/11/06 03:05:14;;;;;;;28.75;10.23;;;;;;;14.96;100.00;97302.81;6083943;23;20021;-94
2022/11/06 03:07:58;;;;;;;33.15;10.52;;;;;;;15.42;100.00;97301.38;6086703;23;20454;-92
2022/11/06 03:10:30;;;;;;;35.20;10.55;;;;;;;14.90;100.00;97297.03;6116155;23;20012;-92
2022/11/06 03:13:26;;;;;;;31.43;10.90;;;;;;;14.61;100.00;97294.91;6113996;23;20060;-94
2022/11/06 03:16:04;;;;;;;30.73;11.23;;;;;;;18.70;100.00;97275.25;6115723;23;20582;-93
2022/11/06 03:18:43;;;;;;;35.78;10.68;;;;;;;18.12;100.00;97274.59;6111324;23;20018;-94
2022/11/06 03:21:19;;;;;;;28.92;10.70;;;;;;;16.15;100.00;97269.47;6113631;23;20026;-92
2022/11/06 03:23:55;;;;;;;33.13;11.75;;;;;;;20.37;100.00;97254.06;6114562;23;20097;-94
2022/11/06 03:26:23;;;;;;;39.63;11.45;;;;;;;18.52;100.00;97264.09;6088526;23;20021;-93
2022/11/06 03:28:56;;;;;;;32.20;11.57;;;;;;;16.66;100.00;97271.88;6113863;23;20018;-93
2022/11/06 03:31:31;;;;;;;38.58;11.82;;;;;;;16.18;100.00;97258.78;6111918;23;20016;-93
2022/11/06 03:34:09;;;;;;;34.20;11.70;;;;;;;15.33;100.00;97261.53;6111590;23;20016;-92
2022/11/06 03:37:00;;;;;;;35.75;12.45;;;;;;;14.78;100.00;97261.72;6087238;23;20053;-93
2022/11/06 03:39:32;;;;;;;38.40;11.55;;;;;;;17.21;100.00;97244.94;6112922;23;20097;-94
2022/11/06 03:42:04;;;;;;;35.28;11.15;;;;;;;14.22;100.00;97260.94;6112059;23;20025;-93
2022/11/06 03:44:38;;;;;;;30.52;9.70;;;;;;;15.34;100.00;97249.25;6114221;23;20403;-94
2022/11/06 03:47:18;;;;;;;36.42;11.23;;;;;;;16.22;100.00;97247.16;6087000;23;20016;-93
2022/11/06 03:49:54;;;;;;;34.38;10.82;;;;;;;19.21;100.00;97221.69;6112093;23;20064;-94
2022/11/06 03:52:34;;;;;;;32.47;10.57;;;;;;;19.16;100.00;97223.81;6088161;23;20061;-94
2022/11/06 03:55:17;;;;;;;34.95;10.82;;;;;;;17.46;100.00;97237.34;6090133;23;20022;-92
2022/11/06 03:57:51;;;;;;;31.92;9.85;;;;;;;17.93;100.00;97225.66;6117863;23;20045;-94
2022/11/06 04:00:19;;;;;;;24.58;8.68;;;;;;;17.23;100.00;97229.06;6091509;23;20006;-94
2022/11/06 04:02:49;;;;;;;27.42;8.50;;;;;;;14.92;100.00;97242.66;6115397;23;20089;-94
2022/11/06 04:05:24;;;;;;;25.85;8.55;;;;;;;14.00;100.00;97254.94;6091276;23;20010;-92
2022/11/06 04:16:16;;;;;;;27.73;8.38;;;;;;;16.25;100.00;97222.47;6117589;23;20028;-93
2022/11/06 04:18:42;;;;;;;28.73;8.85;;;;;;;15.92;100.00;97213.75;6091859;23;20335;-94
2022/11/06 04:21:45;;;;;;;23.70;8.35;;;;;;;19.06;100.00;97191.88;6092908;23;20010;-93
2022/11/06 04:27:07;;;;;;;22.98;7.50;;;;;;;18.22;100.00;97191.28;6117204;23;20057;-92
2022/11/06 04:29:38;;;;;;;21.80;7.63;;;;;;;17.01;100.00;97197.91;6090128;23;20132;-94
2022/11/06 04:32:15;;;;;;;25.38;7.60;;;;;;;15.92;100.00;97197.13;6090211;23;20013;-93
2022/11/06 04:34:59;;;;;;;21.67;7.15;;;;;;;19.11;100.00;97176.56;6114812;23;20021;-94
2022/11/06 04:37:28;;;;;;;;;;;;;;;20.80;100.00;97182.03;6091708;23;20013;-93
2022/11/06 04:40:04;;;;;;;22.65;7.53;;;;;;;17.92;100.00;97179.13;6091270;23;19913;-92
2022/11/06 04:42:36;;;;;;;27.70;9.05;;;;;;;16.77;100.00;97193.13;6090032;23;20041;-93
2022/11/06 04:45:09;;;;;;;29.10;8.13;;;;;;;17.25;100.00;97184.19;6090461;23;20021;-93
2022/11/06 04:47:36;;;;;;;36.15;9.23;;;;;;;15.81;100.00;97185.44;6116187;23;20020;-93
2022/11/06 04:50:04;;;;;;;28.23;8.27;;;;;;;17.34;100.00;97173.06;6114838;23;20775;-94
2022/11/06 04:52:31;;;;;;;24.55;7.78;;;;;;;15.79;100.00;97176.78;6089210;23;20006;-93
2022/11/06 04:54:58;;;;;;;37.80;9.63;;;;;;;14.44;100.00;97184.69;6119523;23;20006;-93
2022/11/06 04:57:24;;;;;;;31.75;9.95;;;;;;;14.76;100.00;97184.88;6113973;23;20009;-92
2022/11/06 04:59:49;;;;;;;28.42;9.13;;;;;;;16.61;100.00;97171.28;6090292;23;20022;-94
2022/11/06 05:02:15;;;;;;;38.33;9.77;;;;;;;15.80;100.00;97175.84;6089103;23;20010;-93
2022/11/06 05:04:40;;;;;;;26.50;8.48;;;;;;;15.96;100.00;97175.81;6113928;23;20030;-93
2022/11/06 05:07:06;;;;;;;209.70;29.15;;;;;;;15.78;100.00;97166.31;6089911;23;20072;-93
2022/11/06 05:09:31;;;;;;;55.85;11.07;;;;;;;14.85;100.00;97172.13;6114615;23;20017;-93
2022/11/06 05:11:56;;;;;;;62.00;11.57;;;;;;;15.44;100.00;97165.56;6115839;23;20014;-93
2022/11/06 05:14:22;;;;;;;36.40;9.13;;;;;;;17.28;100.00;97152.38;6113991;23;20448;-93
2022/11/06 05:16:47;;;;;;;45.58;9.63;;;;;;;15.79;100.00;97157.50;6090014;23;20010;-93
2022/11/06 05:19:13;;;;;;;52.80;10.45;;;;;;;17.32;100.00;97149.44;6088735;23;20017;-94
2022/11/06 05:24:22;;;;;;;40.22;10.10;;;;;;;15.39;100.00;97157.91;6115013;23;20020;-94
2022/11/06 05:26:48;;;;;;;40.30;9.73;;;;;;;14.02;100.00;97155.25;6115135;23;20018;-93
2022/11/06 05:29:13;;;;;;;45.92;11.18;;;;;;;13.72;100.00;97154.97;6089723;23;20033;-94
2022/11/06 05:31:38;;;;;;;53.95;10.27;;;;;;;14.61;100.00;97144.47;6114863;23;20009;-93
2022/11/06 05:34:04;;;;;;;56.28;11.48;;;;;;;14.50;100.00;97143.28;6114660;23;20025;-93
2022/11/06 05:36:29;;;;;;;84.38;13.70;;;;;;;14.77;100.00;97153.28;6115500;23;20018;-94
2022/11/06 05:38:55;;;;;;;58.30;12.02;;;;;;;14.63;100.00;97150.53;6090297;23;20061;-94
2022/11/06 05:41:20;;;;;;;62.85;12.07;;;;;;;14.57;100.00;97153.44;6113822;23;20009;-93
2022/11/06 05:43:46;;;;;;;50.15;11.45;;;;;;;15.25;100.00;97156.03;6090739;23;20014;-93
2022/11/06 05:46:11;;;;;;;73.75;12.77;;;;;;;21.99;100.00;97130.31;6114268;23;20554;-93
2022/11/06 05:48:36;;;;;;;74.93;12.82;;;;;;;15.26;100.00;97149.84;6115830;23;20016;-93
2022/11/06 05:51:07;;;;;;;33.00;10.48;;;;;;;15.72;100.00;97146.47;6113929;23;20392;-93
2022/11/06 05:53:34;;;;;;;30.58;10.68;;;;;;;16.01;100.00;97147.50;6089185;23;20025;-94
2022/11/06 05:56:00;;;;;;;29.00;10.43;;;;;;;17.63;100.00;97125.56;6117524;23;20010;-94
2022/11/06 05:58:26;;;;;;;29.27;10.10;;;;;;;15.72;100.00;97135.13;6115499;23;20634;-94
2022/11/06 06:00:54;;;;;;;35.50;11.20;;;;;;;15.56;100.00;97137.75;6089134;23;20060;-93
2022/11/06 06:03:20;;;;;;;29.35;10.27;;;;;;;14.87;100.00;97137.91;6090363;23;20148;-93
2022/11/06 06:05:46;;;;;;;27.77;10.23;;;;;;;15.29;100.00;97126.03;6113664;23;20105;-94
2022/11/06 06:08:11;;;;;;;30.00;10.35;;;;;;;15.31;100.00;97124.19;6113898;23;20037;-94
2022/11/06 06:10:44;;;;;;;27.65;10.07;;;;;;;16.19;100.00;97116.66;6089420;23;20017;-94
2022/11/06 06:13:09;;;;;;;27.52;10.35;;;;;;;16.78;100.00;97107.09;6115825;23;20026;-93
2022/11/06 06:15:37;;;;;;;30.27;10.45;;;;;;;17.49;100.00;97108.00;6115085;23;20603;-93
2022/11/06 06:18:03;;;;;;;235.07;24.65;;;;;;;17.04;100.00;97097.63;6089054;23;20036;-93
2022/11/06 06:20:28;;;;;;;28.80;11.02;;;;;;;17.01;100.00;97100.47;6114388;23;20689;-93
2022/11/06 06:22:55;;;;;;;23.75;10.48;;;;;;;16.46;100.00;97107.25;6090510;23;20022;-94
2022/11/06 06:25:22;;;;;;;36.47;11.15;;;;;;;16.28;100.00;97104.75;6115588;23;20544;-93
2022/11/06 06:27:47;;;;;;;34.90;10.73;;;;;;;16.17;100.00;97099.28;6118170;23;20009;-93
2022/11/06 06:30:13;;;;;;;35.03;10.82;;;;;;;16.95;100.00;97088.53;6092170;23;20018;-93
2022/11/06 06:32:38;;;;;;;37.10;10.82;;;;;;;16.21;100.00;97085.00;6089357;23;20017;-94
2022/11/06 06:35:04;;;;;;;180.70;19.95;;;;;;;16.27;100.00;97082.03;6114810;23;20014;-93
2022/11/06 06:37:30;;;;;;;61.85;14.20;;;;;;;17.71;100.00;97065.28;6092030;23;20026;-94
2022/11/06 06:39:55;;;;;;;171.13;22.35;;;;;;;17.56;100.00;97067.13;6089641;23;20033;-94
2022/11/06 06:42:21;;;;;;;46.22;11.40;;;;;;;16.56;100.00;97076.78;6119793;23;20001;-94
2022/11/06 06:44:47;;;;;;;353.20;29.58;;;;;;;17.18;100.00;97067.78;6119535;23;20066;-94
2022/11/06 06:47:15;;;;;;;41.17;12.15;;;;;;;16.24;100.00;97066.41;6119306;23;20038;-94
2022/11/06 06:49:42;;;;;;;32.75;11.48;;;;;;;15.79;100.00;97069.00;6116382;23;20627;-95
2022/11/06 06:52:08;;;;;;;49.88;12.40;;;;;;;15.73;100.00;97066.72;6117235;23;20005;-94
2022/11/06 06:54:33;;;;;;;144.93;16.10;;;;;;;16.03;100.00;97058.00;6117832;23;20088;-94
2022/11/06 06:56:59;;;;;;;45.30;11.32;;;;;;;16.47;100.00;97048.44;6116947;23;20041;-95
2022/11/06 06:59:24;;;;;;;32.03;10.95;;;;;;;15.43;100.00;97049.09;6114822;23;20013;-93
2022/11/06 07:01:50;;;;;;;34.00;10.32;;;;;;;15.33;100.00;97051.41;6116691;23;20020;-95
2022/11/06 07:04:15;;;;;;;38.13;11.45;;;;;;;15.51;100.00;97040.81;6091006;23;20448;-94
2022/11/06 07:06:40;;;;;;;39.60;10.48;;;;;;;16.00;100.00;97038.00;6115889;23;20024;-94
2022/11/06 07:09:06;;;;;;;38.72;10.50;;;;;;;16.70;100.00;97037.34;6116873;23;20096;-95
2022/11/06 07:11:31;;;;;;;34.38;10.75;;;;;;;16.33;100.00;97039.56;6116820;23;20033;-94
2022/11/06 07:13:56;;;;;;;39.70;11.00;;;;;;;16.37;100.00;97035.81;6118228;23;20014;-95
2022/11/06 07:16:22;;;;;;;43.85;11.63;;;;;;;16.30;100.00;97044.19;6091166;23;20017;-95
2022/11/06 07:18:47;;;;;;;30.85;10.35;;;;;;;16.78;100.00;97026.31;6115628;23;20022;-96
2022/11/06 07:21:13;;;;;;;31.65;10.13;;;;;;;16.11;100.00;97026.84;6115499;23;20085;-95
2022/11/06 07:23:39;;;;;;;29.80;9.70;;;;;;;15.39;100.00;97020.47;6115255;23;20009;-95
2022/11/06 07:26:05;;;;;;;32.92;10.48;;;;;;;16.13;100.00;97017.09;6092614;23;20013;-92
2022/11/06 07:28:31;;;;;;;27.25;9.32;;;;;;;16.71;100.00;97004.81;6113787;23;20021;-94
2022/11/06 07:30:59;;;;;;;36.42;9.43;;;;;;;16.55;100.00;97001.44;6086212;23;20396;-94
2022/11/06 07:33:25;;;;;;;27.98;9.07;;;;;;;16.02;100.00;97001.94;6088729;23;20012;-92
2022/11/06 07:35:50;;;;;;;27.75;9.23;;;;;;;15.11;100.00;97006.25;6086042;23;20435;-93
2022/11/06 07:38:16;;;;;;;30.33;10.27;;;;;;;15.67;100.00;97001.34;6086814;23;20029;-93
2022/11/06 07:40:41;;;;;;;28.20;9.73;;;;;;;15.66;100.00;96997.03;6110528;23;20021;-92
2022/11/06 08:05:31;;;;;;;28.67;9.50;;;;;;;15.41;100.00;96971.34;6111339;23;20048;-93
2022/11/06 08:07:56;;;;;;;36.45;10.65;;;;;;;16.10;100.00;96967.28;6118367;23;20770;-96
2022/11/06 08:10:22;;;;;;;36.83;10.38;;;;;;;16.49;100.00;96959.69;6093276;23;20014;-96
2022/11/06 08:12:47;;;;;;;32.17;10.85;;;;;;;16.30;100.00;96960.84;6093696;23;20106;-95
2022/11/06 08:15:13;;;;;;;31.58;9.70;;;;;;;16.53;100.00;96962.06;6117660;23;20152;-96
2022/11/06 08:17:38;;;;;;;27.23;8.95;;;;;;;17.95;100.00;96956.53;6120110;23;20001;-95
2022/11/06 08:20:04;;;;;;;25.13;8.73;;;;;;;16.83;100.00;96957.59;6093354;23;20013;-96
2022/11/06 08:22:30;;;;;;;25.73;8.40;;;;;;;17.27;100.00;96959.22;6094432;23;20010;-93
2022/11/06 08:24:56;;;;;;;24.08;8.18;;;;;;;16.32;100.00;96958.94;6093105;23;20073;-95
2022/11/06 08:27:24;;;;;;;23.67;8.65;;;;;;;15.94;100.00;96958.66;6091681;23;20415;-95
2022/11/06 08:29:52;;;;;;;25.92;8.65;;;;;;;16.52;100.00;96957.75;6093513;23;20484;-95
2022/11/06 08:32:17;;;;;;;31.50;9.57;;;;;;;18.78;100.00;96932.28;6093208;23;20439;-95
2022/11/06 08:34:43;;;;;;;32.70;9.20;;;;;;;17.64;100.00;96933.03;6092227;23;20014;-96
2022/11/06 08:37:09;;;;;;;31.65;9.38;;;;;;;16.15;100.00;96944.19;6092919;23;20014;-94
2022/11/06 08:39:36;;;;;;;25.27;8.32;;;;;;;15.95;100.00;96937.53;6092326;23;20022;-94
2022/11/06 08:42:03;;;;;;;28.00;8.07;;;;;;;16.28;100.00;96920.63;6118189;23;20021;-94
2022/11/06 08:44:28;;;;;;;28.10;8.55;;;;;;;16.91;100.00;96912.38;6117706;23;20046;-96
2022/11/06 08:46:54;;;;;;;29.88;8.88;;;;;;;16.07;100.00;96916.69;6119359;23;20062;-95
2022/11/06 08:49:22;;;;;;;28.85;9.70;;;;;;;16.24;100.00;96911.22;6115627;23;20069;-95
2022/11/06 08:51:47;;;;;;;35.75;10.38;;;;;;;15.18;100.00;96919.19;6093703;23;20012;-93
2022/11/06 08:54:13;;;;;;;37.35;9.40;;;;;;;14.74;100.00;96917.31;6116768;23;20084;-96
2022/11/06 08:56:39;;;;;;;30.42;9.23;;;;;;;14.75;100.00;96910.25;6119708;23;20014;-95
2022/11/06 08:59:05;;;;;;;29.02;9.20;;;;;;;14.82;100.00;96906.34;6093264;23;20022;-95
2022/11/06 09:01:30;;;;;;;27.25;8.90;;;;;;;15.01;100.00;96903.56;6094830;23;20008;-96
2022/11/06 09:03:56;;;;;;;31.60;9.43;;;;;;;14.44;100.00;96901.44;6094218;23;20001;-94
2022/11/06 09:06:22;;;;;;;30.00;9.15;;;;;;;15.15;100.00;96890.47;6113561;23;20026;-95
2022/11/06 09:09:21;;;;;;;28.15;9.15;;;;;;;17.09;100.00;96884.00;6087875;23;20006;-95
2022/11/06 09:12:02;;;;;;;;;;;;;;;;;;;;;
2022/11/06 09:14:32;;;;;;;28.05;9.07;;;;;;;15.37;100.00;96889.25;6093492;23;20117;-96
2022/11/06 09:17:15;;;;;;;26.10;8.88;;;;;;;15.51;100.00;96906.81;6115124;23;20026;-96
2022/11/06 09:19:41;;;;;;;34.10;9.00;;;;;;;16.18;100.00;96887.94;6114756;23;20029;-96
2022/11/06 09:22:14;;;;;;;27.20;8.45;;;;;;;14.98;100.00;96895.84;6091511;23;20085;-95
2022/11/06 09:24:40;;;;;;;27.63;8.60;;;;;;;15.13;100.00;96896.78;6116603;23;20017;-96
2022/11/06 09:27:19;;;;;;;30.85;8.73;;;;;;;16.59;100.00;96878.38;6092154;23;20014;-95
2022/11/06 09:29:45;;;;;;;29.33;8.93;;;;;;;15.05;100.00;96888.47;6116568;23;20014;-95
2022/11/06 09:32:22;;;;;;;27.63;8.70;;;;;;;15.50;100.00;96886.72;6090775;23;20085;-96
2022/11/06 09:34:48;;;;;;;30.73;9.88;;;;;;;15.33;100.00;96871.97;6114578;23;20018;-95
2022/11/06 09:37:15;;;;;;;25.17;7.90;;;;;;;17.03;100.00;96859.75;6092650;23;20191;-95
2022/11/06 09:39:40;;;;;;;29.35;8.38;;;;;;;16.84;100.00;96868.00;6093061;23;20313;-92
2022/11/06 09:42:22;;;;;;;28.55;8.57;;;;;;;16.80;100.00;96868.25;6117479;23;20484;-95
2022/11/06 09:45:00;;;;;;;32.08;8.65;;;;;;;17.45;100.00;96859.63;6092808;23;20006;-94
2022/11/06 09:47:31;;;;;;;25.70;8.65;;;;;;;16.27;100.00;96871.59;6090322;23;20014;-95
2022/11/06 09:49:57;;;;;;;30.25;8.50;;;;;;;17.16;100.00;96856.31;6115710;23;20337;-95
2022/11/06 09:52:32;;;;;;;25.90;9.70;;;;;;;17.23;100.00;96840.00;6092498;23;20024;-95
2022/11/06 09:55:05;;;;;;;27.25;8.00;;;;;;;19.55;100.00;96825.38;6092994;23;20014;-96
2022/11/06 09:57:51;;;;;;;25.52;7.65;;;;;;;17.39;100.00;96829.25;6114759;23;20010;-94
2022/11/06 10:00:17;;;;;;;27.90;7.85;;;;;;;16.55;100.00;96843.56;6089015;23;20429;-96
2022/11/06 10:02:52;;;;;;;28.23;7.28;;;;;;;19.02;100.00;96821.38;6115236;23;20017;-94
2022/11/06 10:05:33;;;;;;;26.02;7.13;;;;;;;19.78;100.00;96832.38;6116050;23;20081;-95
2022/11/06 10:08:01;;;;;;;24.00;7.30;;;;;;;18.42;100.00;96837.09;6087493;23;20062;-94
2022/11/06 10:11:22;;;;;;;22.85;6.85;;;;;;;17.70;100.00;96834.25;6086519;23;20022;-92
2022/11/06 10:14:12;;;;;;;27.00;7.22;;;;;;;16.62;100.00;96843.97;5995325;23;20082;-92
2022/11/06 10:17:08;;;;;;;26.08;7.07;;;;;;;16.19;100.00;96834.41;5990311;23;20015;-91
2022/11/06 10:19:38;;;;;;;25.17;7.22;;;;;;;16.99;100.00;96839.00;5969075;23;20023;-93
2022/11/06 10:22:14;;;;;;;21.20;5.97;;;;;;;17.01;100.00;96829.22;5994017;23;20023;-91
2022/11/06 10:24:42;;;;;;;24.05;5.88;;;;;;;17.26;100.00;96830.19;5991758;23;20366;-92
2022/11/06 10:27:17;;;;;;;19.75;6.15;;;;;;;18.40;100.00;96815.28;5968604;23;20011;-92
2022/11/06 10:30:03;;;;;;;19.80;6.10;;;;;;;17.71;100.00;96820.94;5968098;23;20014;-91
2022/11/06 10:33:09;;;;;;;23.20;5.45;;;;;;;16.99;100.00;96826.69;5970814;23;20564;-91
2022/11/06 10:35:45;;;;;;;25.83;6.88;;;;;;;17.99;100.00;96815.59;5969347;23;20015;-94
2022/11/06 10:38:22;;;;;;;16.40;5.53;;;;;;;18.37;100.00;96822.56;5971238;23;20027;-94
2022/11/06 10:40:49;;;;;;;20.48;6.22;;;;;;;17.58;100.00;96809.59;5972388;23;20027;-94
2022/11/06 10:43:39;;;;;;;19.58;5.97;;;;;;;18.85;100.00;96809.38;5977784;23;20012;-96
2022/11/06 10:46:07;;;;;;;18.17;5.75;;;;;;;18.40;100.00;96811.81;5974995;23;20227;-96
2022/11/06 10:48:39;;;;;;;19.20;5.50;;;;;;;18.12;100.00;96805.00;6010197;23;20034;-96
2022/11/06 10:51:35;;;;;;;15.33;5.37;;;;;;;18.17;100.00;96802.88;6095957;23;20101;-96
2022/11/06 10:54:25;;;;;;;23.65;5.53;;;;;;;20.78;100.00;96773.31;6112654;23;20011;-96
2022/11/06 10:57:18;;;;;;;17.85;5.80;;;;;;;19.66;100.00;96775.13;6136352;23;20358;-93
2022/11/06 10:59:44;;;;;;;17.05;6.03;;;;;;;17.91;100.00;96792.38;6085624;23;20094;-93
2022/11/06 11:02:39;;;;;;;17.90;5.68;;;;;;;18.70;100.00;96784.94;6086850;23;20021;-92
2022/11/06 11:05:14;;;;;;;20.98;6.38;;;;;;;17.98;100.00;96792.78;6085690;23;20017;-93
2022/11/06 11:07:41;;;;;;;20.95;6.25;;;;;;;18.22;100.00;96790.22;6114732;23;20707;-94
2022/11/06 11:10:22;;;;;;;18.67;6.13;;;;;;;17.58;100.00;96780.59;6115673;23;20097;-92
2022/11/06 11:12:59;;;;;;;21.05;6.15;;;;;;;17.52;100.00;96775.72;6089628;23;20010;-91
2022/11/06 11:15:45;;;;;;;20.40;6.22;;;;;;;19.63;100.00;96746.28;6112657;23;20407;-94
2022/11/06 11:18:10;;;;;;;19.95;6.13;;;;;;;17.30;100.00;96755.28;6088406;23;20073;-92
2022/11/06 11:20:41;;;;;;;15.07;5.45;;;;;;;17.34;100.00;96747.06;6088709;23;20156;-92
2022/11/06 11:23:21;;;;;;;17.95;5.07;;;;;;;18.46;100.00;96739.25;6114521;23;20078;-93
2022/11/06 11:25:55;;;;;;;19.48;6.25;;;;;;;17.39;100.00;96739.66;6087492;23;20014;-94
2022/11/06 11:28:30;;;;;;;18.05;5.35;;;;;;;16.81;100.00;96746.22;6116086;23;20072;-93
2022/11/06 11:31:07;;;;;;;23.42;6.45;;;;;;;17.52;100.00;96733.56;6113455;23;20022;-93
2022/11/06 11:33:34;;;;;;;16.88;6.18;;;;;;;19.77;100.00;96706.38;6113866;23;20029;-93
2022/11/06 11:36:01;;;;;;;18.30;6.07;;;;;;;20.04;100.00;96702.53;6113180;23;20097;-92
2022/11/06 11:38:28;;;;;;;22.65;6.00;;;;;;;18.53;100.00;96716.72;6113186;23;20100;-90
2022/11/06 11:41:07;;;;;;;20.45;7.13;;;;;;;17.62;100.00;96716.16;6085530;23;20013;-91
2022/11/06 11:43:33;;;;;;;19.13;5.78;;;;;;;17.25;100.00;96695.00;6109587;23;20790;-91
2022/11/06 11:46:13;;;;;;;23.27;6.55;;;;;;;19.71;100.00;96674.31;6109498;23;20022;-91
2022/11/06 11:48:43;;;;;;;20.58;5.97;;;;;;;20.77;100.00;96659.56;6114189;23;20010;-92
2022/11/06 11:51:29;;;;;;;17.75;5.80;;;;;;;18.66;100.00;96667.31;6087290;23;20017;-92
2022/11/06 11:54:18;;;;;;;18.33;5.63;;;;;;;19.18;100.00;96657.25;6113686;23;20018;-92
2022/11/06 11:56:56;;;;;;;21.80;5.93;;;;;;;21.24;100.00;96643.19;6087560;23;20472;-91
2022/11/06 11:59:31;;;;;;;19.25;5.40;;;;;;;20.15;100.00;96643.41;6087939;23;20026;-92
2022/11/06 12:02:02;;;;;;;19.63;5.68;;;;;;;20.02;100.00;96638.28;6086953;23;20495;-92
2022/11/06 12:04:35;;;;;;;16.42;5.60;;;;;;;19.02;100.00;96647.00;6086878;23;20041;-92
2022/11/06 12:07:04;;;;;;;17.03;5.30;;;;;;;18.51;100.00;96650.84;6088106;23;20369;-92
2022/11/06 12:09:41;;;;;;;17.58;5.43;;;;;;;18.84;100.00;96653.69;6112469;23;20322;-92
2022/11/06 12:12:30;;;;;;;18.80;6.03;;;;;;;19.36;100.00;96651.47;6087801;23;20016;-93